createdAt,value
2023-03-21T00:01:57.517Z,12.43
2023-03-21T00:04:26.418Z,12.48
2023-03-21T00:06:54.911Z,12.61
2023-03-21T00:09:22.679Z,12.65
2023-03-21T00:11:50.582Z,12.54
2023-03-21T00:14:21.077Z,12.43
2023-03-21T00:16:53.565Z,12.44
2023-03-21T00:19:21.946Z,12.34
2023-03-21T00:22:06.680Z,12.34
2023-03-21T00:24:36.025Z,12.42
2023-03-21T00:27:26.884Z,12.46
2023-03-21T00:29:51.405Z,12.55
2023-03-21T00:32:19.934Z,12.53
2023-03-21T00:35:02.390Z,12.45
2023-03-21T00:37:37.340Z,12.38
2023-03-21T00:40:22.953Z,12.35
2023-03-21T00:42:52.889Z,12.59
2023-03-21T00:45:22.394Z,12.47
2023-03-21T00:47:50.127Z,12.30
2023-03-21T00:50:18.321Z,12.16
2023-03-21T00:52:45.939Z,12.10
2023-03-21T00:55:18.113Z,12.00
2023-03-21T00:57:50.227Z,12.07
2023-03-21T01:00:25.221Z,12.12
2023-03-21T01:03:23.135Z,12.00
2023-03-21T01:06:03.852Z,12.18
2023-03-21T01:08:51.708Z,12.41
2023-03-21T01:11:22.802Z,12.12
2023-03-21T01:13:59.804Z,12.11
2023-03-21T01:16:36.322Z,12.14
2023-03-21T01:19:06.985Z,11.88
2023-03-21T01:21:34.977Z,11.84
2023-03-21T01:24:02.625Z,11.87
2023-03-21T01:26:30.307Z,11.83
2023-03-21T01:28:57.949Z,11.76
2023-03-21T01:31:25.545Z,11.68
2023-03-21T01:33:53.127Z,11.72
2023-03-21T01:36:25.860Z,11.81
2023-03-21T01:38:58.707Z,12.00
2023-03-21T01:41:42.644Z,11.80
2023-03-21T01:44:19.507Z,11.80
2023-03-21T01:49:49.893Z,11.76
2023-03-21T01:52:39.791Z,11.84
2023-03-21T01:55:18.108Z,11.68
2023-03-21T01:58:06.332Z,11.76
2023-03-21T02:00:44.039Z,11.64
2023-03-21T02:03:35.404Z,11.49
2023-03-21T02:06:30.496Z,11.52
2023-03-21T02:09:08.957Z,11.47
2023-03-21T02:11:38.131Z,11.56
2023-03-21T02:14:07.672Z,11.62
2023-03-21T02:17:11.511Z,11.66
2023-03-21T02:19:57.828Z,11.45
2023-03-21T02:22:26.531Z,11.44
2023-03-21T02:25:01.356Z,11.51
2023-03-21T02:27:34.980Z,11.66
2023-03-21T02:30:20.224Z,11.83
2023-03-21T02:32:57.731Z,11.82
2023-03-21T02:35:39.091Z,11.72
2023-03-21T02:38:31.707Z,11.32
2023-03-21T02:41:18.321Z,11.26
2023-03-21T02:43:47.326Z,11.70
2023-03-21T02:46:18.257Z,11.70
2023-03-21T02:48:52.299Z,11.46
2023-03-21T02:51:24.369Z,11.34
2023-03-21T02:54:45.256Z,11.29
2023-03-21T02:57:03.781Z,11.09
2023-03-21T02:59:34.034Z,11.13
2023-03-21T03:02:05.310Z,10.99
2023-03-21T03:04:32.819Z,10.78
2023-03-21T03:07:09.581Z,11.06
2023-03-21T03:09:56.312Z,10.91
2023-03-21T03:12:31.638Z,10.89
2023-03-21T03:15:18.013Z,10.80
2023-03-21T03:17:49.250Z,10.73
2023-03-21T03:20:30.993Z,10.80
2023-03-21T03:22:58.476Z,10.78
2023-03-21T03:25:42.590Z,11.13
2023-03-21T03:28:16.068Z,10.94
2023-03-21T03:31:00.893Z,11.06
2023-03-21T03:33:37.328Z,11.05
2023-03-21T03:36:07.586Z,11.04
2023-03-21T03:38:39.201Z,10.90
2023-03-21T03:41:28.178Z,10.71
2023-03-21T03:44:02.177Z,10.53
2023-03-21T03:46:35.586Z,10.63
2023-03-21T03:49:15.529Z,10.71
2023-03-21T03:51:51.558Z,10.65
2023-03-21T03:54:33.326Z,10.59
2023-03-21T03:57:04.666Z,10.65
2023-03-21T03:59:34.358Z,10.51
2023-03-21T04:02:20.643Z,10.54
2023-03-21T04:04:53.197Z,10.51
2023-03-21T04:07:22.468Z,10.40
2023-03-21T04:09:53.351Z,10.38
2023-03-21T04:12:21.973Z,10.22
2023-03-21T04:15:25.023Z,10.14
2023-03-21T04:18:02.385Z,10.26
2023-03-21T04:20:43.395Z,10.18
2023-03-21T04:23:12.940Z,10.04
2023-03-21T04:25:55.932Z,10.12
2023-03-21T04:28:33.767Z,10.32
2023-03-21T04:31:16.114Z,10.32
2023-03-21T04:33:52.252Z,10.35
2023-03-21T04:36:27.765Z,10.31
2023-03-21T04:39:02.060Z,10.20
2023-03-21T04:41:31.207Z,10.07
2023-03-21T04:43:58.824Z,10.14
2023-03-21T04:46:26.577Z,10.13
2023-03-21T04:48:54.091Z,10.09
2023-03-21T04:51:21.613Z,10.04
2023-03-21T04:53:49.640Z,10.17
2023-03-21T04:56:17.200Z,10.01
2023-03-21T04:58:45.575Z,9.90
2023-03-21T05:01:15.148Z,9.89
2023-03-21T05:03:43.156Z,9.91
2023-03-21T05:06:10.949Z,9.90
2023-03-21T05:08:38.562Z,9.81
2023-03-21T05:11:06.376Z,9.79
2023-03-21T05:13:34.007Z,9.85
2023-03-21T05:16:01.697Z,9.85
2023-03-21T05:18:30.650Z,9.83
2023-03-21T05:21:11.110Z,9.82
2023-03-21T05:23:40.687Z,9.99
2023-03-21T05:26:10.211Z,10.05
2023-03-21T05:28:48.507Z,10.05
2023-03-21T05:31:17.479Z,10.17
2023-03-21T05:33:47.666Z,10.24
2023-03-21T05:36:18.736Z,10.24
2023-03-21T05:38:46.698Z,10.22
2023-03-21T05:41:18.099Z,10.41
2023-03-21T05:43:47.685Z,10.37
2023-03-21T05:46:16.690Z,10.37
2023-03-21T05:48:44.388Z,10.48
2023-03-21T05:51:17.835Z,10.35
2023-03-21T05:53:46.296Z,10.38
2023-03-21T05:56:16.567Z,10.55
2023-03-21T05:58:51.791Z,10.52
2023-03-21T06:01:20.290Z,10.64
2023-03-21T06:03:56.378Z,10.52
2023-03-21T06:06:25.537Z,10.56
2023-03-21T06:08:55.968Z,10.56
2023-03-21T06:11:26.620Z,10.56
2023-03-21T06:14:10.123Z,10.49
2023-03-21T06:16:38.373Z,10.62
2023-03-21T06:19:06.131Z,10.54
2023-03-21T06:21:54.052Z,10.62
2023-03-21T06:24:21.840Z,10.59
2023-03-21T06:26:49.751Z,10.60
2023-03-21T06:29:17.353Z,10.65
2023-03-21T06:31:49.019Z,10.67
2023-03-21T06:34:17.503Z,10.68
2023-03-21T06:36:47.086Z,10.75
2023-03-21T06:39:17.099Z,10.74
2023-03-21T06:41:46.147Z,10.83
2023-03-21T06:44:13.817Z,10.87
2023-03-21T06:46:50.630Z,11.15
2023-03-21T06:49:20.586Z,11.20
2023-03-21T06:51:48.247Z,11.36
2023-03-21T06:54:19.728Z,11.56
2023-03-21T06:56:52.831Z,11.76
2023-03-21T06:59:26.868Z,11.82
2023-03-21T07:02:11.014Z,12.04
2023-03-21T07:04:44.969Z,12.16
2023-03-21T07:07:18.047Z,12.13
2023-03-21T07:09:46.077Z,12.12
2023-03-21T07:12:13.709Z,12.37
2023-03-21T07:15:19.687Z,12.48
2023-03-21T07:17:47.993Z,12.62
2023-03-21T07:20:15.656Z,12.73
2023-03-21T07:22:43.828Z,12.65
2023-03-21T07:25:11.548Z,12.64
2023-03-21T07:27:41.600Z,12.89
2023-03-21T07:30:10.962Z,13.01
2023-03-21T07:32:39.198Z,13.02
2023-03-21T07:35:17.468Z,13.14
2023-03-21T07:37:45.109Z,13.37
2023-03-21T07:40:16.290Z,13.44
2023-03-21T07:42:43.797Z,13.35
2023-03-21T07:45:19.871Z,13.58
2023-03-21T07:47:48.923Z,13.75
2023-03-21T07:50:16.935Z,13.91
2023-03-21T07:52:45.585Z,13.87
2023-03-21T07:55:13.537Z,14.00
2023-03-21T07:57:41.215Z,14.22
2023-03-21T08:00:09.293Z,14.31
2023-03-21T08:02:43.273Z,14.45
2023-03-21T08:05:11.714Z,14.43
2023-03-21T08:07:39.229Z,14.68
2023-03-21T08:10:07.241Z,14.65
2023-03-21T08:12:34.857Z,14.53
2023-03-21T08:15:02.550Z,14.67
2023-03-21T08:17:30.366Z,15.00
2023-03-21T08:19:57.878Z,15.12
2023-03-21T08:22:25.639Z,15.16
2023-03-21T08:24:53.189Z,15.36
2023-03-21T08:27:20.938Z,15.41
2023-03-21T08:29:48.468Z,15.44
2023-03-21T08:32:18.365Z,15.47
2023-03-21T08:34:45.997Z,15.80
2023-03-21T08:37:13.580Z,15.70
2023-03-21T08:39:41.404Z,15.78
2023-03-21T08:42:09.027Z,15.98
2023-03-21T08:44:39.121Z,16.26
2023-03-21T08:47:06.768Z,16.35
2023-03-21T08:49:37.261Z,16.30
2023-03-21T08:52:04.922Z,16.53
2023-03-21T08:54:32.766Z,16.43
2023-03-21T08:57:00.563Z,16.65
2023-03-21T08:59:28.113Z,16.74
2023-03-21T09:01:55.933Z,17.17
2023-03-21T09:04:26.147Z,17.50
2023-03-21T09:06:56.383Z,17.47
2023-03-21T09:09:23.982Z,17.69
2023-03-21T09:11:52.580Z,17.95
2023-03-21T09:14:21.854Z,18.17
2023-03-21T09:16:52.271Z,18.01
2023-03-21T09:19:19.923Z,18.01
2023-03-21T09:21:47.986Z,18.02
2023-03-21T09:24:15.744Z,18.39
2023-03-21T09:26:44.188Z,18.44
2023-03-21T09:29:11.873Z,18.50
2023-03-21T09:31:40.259Z,18.38
2023-03-21T09:34:08.444Z,18.59
2023-03-21T09:36:36.403Z,18.64
2023-03-21T09:39:04.897Z,18.80
2023-03-21T09:41:45.376Z,18.92
2023-03-21T09:44:25.666Z,19.15
2023-03-21T09:47:21.843Z,19.47
2023-03-21T09:49:56.589Z,19.47
2023-03-21T09:52:43.502Z,19.54
2023-03-21T09:55:20.222Z,19.65
2023-03-21T09:57:50.833Z,19.94
2023-03-21T10:00:22.086Z,20.04
2023-03-21T10:02:51.967Z,20.10
2023-03-21T10:05:20.805Z,20.60
2023-03-21T10:07:54.582Z,20.52
2023-03-21T10:10:25.309Z,20.63
2023-03-21T10:12:54.231Z,20.57
2023-03-21T10:15:23.022Z,20.51
2023-03-21T10:18:07.493Z,20.63
2023-03-21T10:20:36.243Z,21.14
2023-03-21T10:23:06.920Z,21.04
2023-03-21T10:25:40.502Z,21.19
2023-03-21T10:28:09.758Z,21.05
2023-03-21T10:30:40.614Z,21.24
2023-03-21T10:33:20.697Z,21.47
2023-03-21T10:35:53.565Z,21.27
2023-03-21T10:38:23.821Z,21.41
2023-03-21T10:40:51.379Z,21.57
2023-03-21T10:43:19.163Z,21.70
2023-03-21T10:45:47.660Z,22.33
2023-03-21T10:48:15.712Z,22.72
2023-03-21T10:50:47.042Z,22.43
2023-03-21T10:53:29.262Z,22.24
2023-03-21T10:55:59.499Z,22.37
2023-03-21T10:58:29.342Z,22.32
2023-03-21T11:00:58.737Z,22.28
2023-03-21T11:03:33.998Z,22.51
2023-03-21T11:06:07.923Z,22.46
2023-03-21T11:08:44.622Z,22.49
2023-03-21T11:11:20.358Z,22.90
2023-03-21T11:13:55.683Z,23.16
2023-03-21T11:16:25.242Z,23.76
2023-03-21T11:18:56.825Z,24.09
2023-03-21T11:21:29.666Z,24.05
2023-03-21T11:23:57.954Z,24.21
2023-03-21T11:26:27.862Z,24.65
2023-03-21T11:28:55.619Z,24.46
2023-03-21T11:31:27.230Z,24.27
2023-03-21T11:34:00.361Z,24.75
2023-03-21T11:36:33.913Z,24.99
2023-03-21T11:39:16.005Z,25.43
2023-03-21T11:41:47.878Z,25.35
2023-03-21T11:44:35.354Z,25.91
2023-03-21T11:47:02.966Z,25.69
2023-03-21T11:49:31.126Z,25.99
2023-03-21T11:52:01.838Z,25.91
2023-03-21T11:54:51.065Z,26.22
2023-03-21T11:57:25.452Z,26.48
2023-03-21T12:00:04.812Z,26.14
2023-03-21T12:02:32.324Z,26.40
2023-03-21T12:05:03.813Z,26.86
2023-03-21T12:07:41.624Z,27.02
2023-03-21T12:10:27.569Z,27.00
2023-03-21T12:13:07.069Z,26.87
2023-03-21T12:15:53.738Z,26.62
2023-03-21T12:18:31.506Z,26.29
2023-03-21T12:21:04.019Z,26.82
2023-03-21T12:23:52.353Z,28.11
2023-03-21T12:26:27.915Z,28.32
2023-03-21T12:29:04.722Z,27.94
2023-03-21T12:31:43.595Z,27.94
2023-03-21T12:34:29.750Z,27.78
2023-03-21T12:36:57.270Z,28.16
2023-03-21T12:39:29.372Z,28.25
2023-03-21T12:42:00.115Z,27.85
2023-03-21T12:44:30.081Z,28.81
2023-03-21T12:47:00.924Z,28.58
2023-03-21T12:49:34.566Z,28.17
2023-03-21T12:52:04.988Z,28.64
2023-03-21T12:54:36.808Z,28.30
2023-03-21T12:57:07.486Z,28.22
2023-03-21T12:59:35.026Z,29.74
2023-03-21T13:02:20.679Z,30.01
2023-03-21T13:04:48.248Z,30.60
2023-03-21T13:07:18.268Z,29.83
2023-03-21T13:09:46.676Z,30.24
2023-03-21T13:12:37.417Z,30.32
2023-03-21T13:15:21.700Z,30.97
2023-03-21T13:17:56.972Z,31.66
2023-03-21T13:20:35.923Z,31.68
2023-03-21T13:23:04.346Z,31.92
2023-03-21T13:25:33.515Z,31.59
2023-03-21T13:28:02.667Z,32.36
2023-03-21T13:30:32.544Z,32.67
2023-03-21T13:33:05.648Z,31.69
2023-03-21T13:35:37.792Z,32.18
2023-03-21T13:38:13.015Z,31.85
2023-03-21T13:40:43.874Z,31.30
2023-03-21T13:43:32.700Z,31.76
2023-03-21T13:46:11.572Z,31.62
2023-03-21T13:48:59.450Z,32.08
2023-03-21T13:51:37.087Z,32.88
2023-03-21T13:54:07.458Z,32.42
2023-03-21T13:56:47.130Z,33.10
2023-03-21T13:59:32.879Z,33.94
2023-03-21T14:02:12.896Z,33.12
2023-03-21T14:04:53.749Z,32.28
2023-03-21T14:07:30.209Z,32.08
2023-03-21T14:10:00.663Z,32.00
2023-03-21T14:12:30.678Z,32.13
2023-03-21T14:15:14.125Z,31.80
2023-03-21T14:17:51.148Z,31.34
2023-03-21T14:20:21.197Z,32.53
2023-03-21T14:22:49.698Z,31.73
2023-03-21T14:25:19.030Z,29.85
2023-03-21T14:28:06.807Z,29.74
2023-03-21T14:30:37.160Z,29.70
2023-03-21T14:33:12.714Z,29.44
2023-03-21T14:35:41.634Z,29.41
2023-03-21T14:38:19.328Z,30.09
2023-03-21T14:40:48.149Z,29.71
2023-03-21T14:43:15.887Z,28.76
2023-03-21T14:45:43.378Z,28.48
2023-03-21T14:48:12.963Z,28.35
2023-03-21T14:50:54.299Z,27.59
2023-03-21T14:53:23.489Z,27.16
2023-03-21T14:55:57.051Z,26.52
2023-03-21T14:58:25.323Z,26.43
2023-03-21T15:00:53.498Z,26.11
2023-03-21T15:03:22.387Z,25.48
2023-03-21T15:05:50.162Z,25.39
2023-03-21T15:08:19.003Z,25.20
2023-03-21T15:11:06.255Z,24.45
2023-03-21T15:13:40.667Z,24.28
2023-03-21T15:16:08.781Z,24.48
2023-03-21T15:18:38.483Z,24.30
2023-03-21T15:21:08.878Z,24.17
2023-03-21T15:23:47.434Z,24.37
2023-03-21T15:26:19.627Z,24.49
2023-03-21T15:28:49.462Z,24.37
2023-03-21T15:31:19.261Z,24.22
2023-03-21T15:33:47.928Z,24.27
2023-03-21T15:36:20.057Z,23.79
2023-03-21T15:38:49.223Z,23.80
2023-03-21T15:41:19.871Z,23.40
2023-03-21T15:43:47.345Z,23.43
2023-03-21T15:46:31.900Z,23.19
2023-03-21T15:49:17.379Z,22.76
2023-03-21T15:51:57.165Z,22.77
2023-03-21T15:54:27.305Z,22.93
2023-03-21T15:56:56.072Z,22.91
2023-03-21T15:59:25.335Z,22.60
2023-03-21T16:01:53.048Z,22.49
2023-03-21T16:04:20.640Z,22.56
2023-03-21T16:07:03.149Z,22.48
2023-03-21T16:09:44.312Z,22.36
2023-03-21T16:12:13.483Z,22.47
2023-03-21T16:14:44.631Z,22.32
2023-03-21T16:17:30.771Z,22.28
2023-03-21T16:19:58.243Z,22.46
2023-03-21T16:22:25.921Z,22.58
2023-03-21T16:24:54.126Z,22.38
2023-03-21T16:27:21.684Z,22.16
2023-03-21T16:29:49.192Z,22.18
2023-03-21T16:32:17.422Z,22.03
2023-03-21T16:34:46.412Z,22.05
2023-03-21T16:37:16.346Z,22.09
2023-03-21T16:39:43.911Z,22.19
2023-03-21T16:42:13.306Z,22.21
2023-03-21T16:44:40.971Z,22.17
2023-03-21T16:47:34.692Z,22.24
2023-03-21T16:50:02.190Z,22.21
2023-03-21T16:52:29.945Z,22.03
2023-03-21T16:54:57.423Z,21.79
2023-03-21T16:57:29.322Z,21.58
2023-03-21T16:59:56.890Z,21.42
2023-03-21T17:02:25.012Z,21.34
2023-03-21T17:04:52.674Z,21.26
2023-03-21T17:07:20.526Z,21.16
2023-03-21T17:09:48.284Z,21.19
2023-03-21T17:12:16.567Z,20.92
2023-03-21T17:14:44.885Z,20.93
2023-03-21T17:17:13.649Z,20.86
2023-03-21T17:19:41.403Z,20.72
2023-03-21T17:22:09.442Z,20.67
2023-03-21T17:24:37.387Z,20.71
2023-03-21T17:27:05.682Z,20.64
2023-03-21T17:29:33.335Z,20.44
2023-03-21T17:32:00.945Z,20.46
2023-03-21T17:34:28.555Z,20.37
2023-03-21T17:36:56.191Z,20.22
2023-03-21T17:39:26.000Z,20.22
2023-03-21T17:41:54.293Z,20.37
2023-03-21T17:44:21.933Z,20.43
2023-03-21T17:46:52.254Z,20.07
2023-03-21T17:49:21.402Z,20.10
2023-03-21T17:51:49.145Z,20.03
2023-03-21T17:54:16.730Z,20.06
2023-03-21T17:56:44.660Z,19.87
2023-03-21T17:59:13.274Z,19.65
2023-03-21T18:01:40.902Z,19.72
2023-03-21T18:04:08.601Z,19.79
2023-03-21T18:06:37.559Z,19.80
2023-03-21T18:09:11.912Z,19.68
2023-03-21T18:11:40.961Z,19.64
2023-03-21T18:14:17.494Z,19.57
2023-03-21T18:16:47.904Z,19.49
2023-03-21T18:19:15.612Z,19.45
2023-03-21T18:21:45.847Z,19.32
2023-03-21T18:24:14.393Z,19.19
2023-03-21T18:26:42.920Z,19.19
2023-03-21T18:32:08.810Z,19.15
2023-03-21T18:34:38.736Z,19.02
2023-03-21T18:37:08.125Z,19.24
2023-03-21T18:39:36.490Z,19.14
2023-03-21T18:42:05.233Z,19.02
2023-03-21T18:44:38.304Z,18.94
2023-03-21T18:47:06.896Z,18.93
2023-03-21T18:50:12.122Z,18.81
2023-03-21T18:52:22.806Z,18.78
2023-03-21T18:54:50.650Z,18.74
2023-03-21T19:00:13.854Z,18.83
2023-03-21T19:02:46.722Z,18.94
2023-03-21T19:05:16.170Z,18.85
2023-03-21T19:07:43.978Z,18.70
2023-03-21T19:10:18.159Z,18.46
2023-03-21T19:12:47.887Z,18.32
2023-03-21T19:15:18.319Z,18.41
2023-03-21T19:20:34.302Z,18.34
2023-03-21T19:23:02.223Z,18.28
2023-03-21T19:25:29.864Z,18.11
2023-03-21T19:27:57.463Z,18.08
2023-03-21T19:30:25.037Z,18.02
2023-03-21T19:32:52.712Z,18.09
2023-03-21T19:35:20.403Z,18.09
2023-03-21T19:37:48.019Z,18.01
2023-03-21T19:40:15.834Z,18.03
2023-03-21T19:42:43.448Z,17.91
2023-03-21T19:45:11.610Z,18.10
2023-03-21T19:47:39.433Z,18.20
2023-03-21T19:52:55.761Z,18.13
2023-03-21T19:55:23.621Z,18.15
2023-03-21T19:57:53.699Z,18.22
2023-03-21T20:00:21.427Z,17.96
2023-03-21T20:02:49.032Z,17.80
2023-03-21T20:05:19.194Z,18.00
2023-03-21T20:07:46.985Z,17.90
2023-03-21T20:10:14.767Z,17.89
2023-03-21T20:12:42.441Z,17.88
2023-03-21T20:15:17.629Z,17.84
2023-03-21T20:17:47.390Z,17.63
2023-03-21T20:20:17.663Z,17.58
2023-03-21T20:25:40.986Z,17.69
2023-03-21T20:28:24.263Z,17.49
2023-03-21T20:30:54.195Z,17.42
2023-03-21T20:33:21.776Z,17.42
2023-03-21T20:38:39.523Z,17.32
2023-03-21T20:41:07.192Z,17.36
2023-03-21T20:46:22.847Z,17.32
2023-03-21T20:48:50.834Z,17.29
2023-03-21T20:52:27.553Z,17.13
2023-03-21T20:54:06.549Z,17.18
2023-03-21T20:56:34.784Z,17.19
2023-03-21T20:59:16.245Z,16.99
2023-03-21T21:01:48.594Z,16.91
2023-03-21T21:04:49.824Z,16.85
2023-03-21T21:07:22.210Z,17.00
2023-03-21T21:09:50.103Z,17.15
2023-03-21T21:12:19.611Z,17.08
2023-03-21T21:14:48.420Z,16.96
2023-03-21T21:17:31.117Z,16.81
2023-03-21T21:20:25.821Z,16.85
2023-03-21T21:22:59.477Z,16.89
2023-03-21T21:25:29.412Z,16.95
2023-03-21T21:27:56.916Z,16.91
2023-03-21T21:30:24.942Z,16.87
2023-03-21T21:32:53.107Z,16.84
2023-03-21T21:35:22.552Z,16.77
2023-03-21T21:37:51.744Z,16.79
2023-03-21T21:40:20.772Z,16.77
2023-03-21T21:42:48.452Z,16.79
2023-03-21T21:45:16.209Z,16.70
2023-03-21T21:47:44.457Z,16.72
2023-03-21T21:50:12.853Z,16.67
2023-03-21T21:52:43.833Z,16.73
2023-03-21T21:55:13.359Z,16.68
2023-03-21T21:57:41.192Z,16.67
2023-03-21T22:00:13.756Z,16.63
2023-03-21T22:02:42.237Z,16.54
2023-03-21T22:05:10.724Z,16.57
2023-03-21T22:07:39.360Z,16.51
2023-03-21T22:10:07.207Z,16.41
2023-03-21T22:12:34.836Z,16.29
2023-03-21T22:15:02.672Z,16.28
2023-03-21T22:17:31.115Z,16.44
2023-03-21T22:20:05.580Z,16.66
2023-03-21T22:22:34.326Z,16.57
2023-03-21T22:25:02.355Z,16.56
2023-03-21T22:27:29.932Z,16.35
2023-03-21T22:29:57.604Z,16.45
2023-03-21T22:32:25.722Z,16.38
2023-03-21T22:34:53.332Z,16.38
2023-03-21T22:37:20.974Z,16.31
2023-03-21T22:39:48.585Z,16.22
2023-03-21T22:42:16.245Z,16.08
2023-03-21T22:44:43.891Z,16.12
2023-03-21T22:47:11.658Z,16.17
2023-03-21T22:49:39.254Z,16.19
2023-03-21T22:52:07.281Z,15.93
2023-03-21T22:54:34.948Z,16.10
2023-03-21T22:57:02.587Z,15.93
2023-03-21T22:59:30.597Z,15.88
2023-03-21T23:01:58.598Z,15.76
2023-03-21T23:04:27.679Z,15.90
2023-03-21T23:06:55.397Z,15.86
2023-03-21T23:09:23.134Z,15.99
2023-03-21T23:11:51.115Z,16.00
2023-03-21T23:14:21.012Z,16.14
2023-03-21T23:16:49.894Z,16.09
2023-03-21T23:19:17.663Z,15.86
2023-03-21T23:21:45.294Z,15.91
2023-03-21T23:24:13.311Z,16.07
2023-03-21T23:26:41.273Z,15.82
2023-03-21T23:29:10.590Z,15.64
2023-03-21T23:31:38.685Z,15.50
2023-03-21T23:34:06.542Z,15.43
2023-03-21T23:36:34.322Z,15.56
2023-03-21T23:39:02.111Z,15.48
2023-03-21T23:41:29.750Z,15.60
2023-03-21T23:43:57.414Z,15.48
2023-03-21T23:46:25.010Z,15.56
2023-03-21T23:48:53.138Z,15.51
2023-03-21T23:51:20.809Z,15.41
2023-03-21T23:53:48.678Z,15.28
2023-03-21T23:56:19.790Z,15.41
2023-03-21T23:58:48.339Z,15.39
